createdAt,value
2018-01-11T00:00:08.971Z,9.00
2018-01-11T00:02:38.129Z,8.98
2018-01-11T00:05:07.092Z,8.96
2018-01-11T00:07:37.722Z,8.90
2018-01-11T00:10:07.046Z,8.96
2018-01-11T00:12:40.797Z,8.94
2018-01-11T00:15:09.839Z,8.92
2018-01-11T00:17:40.392Z,9.01
2018-01-11T00:20:10.262Z,9.12
2018-01-11T00:22:39.273Z,9.07
2018-01-11T00:25:08.967Z,9.11
2018-01-11T00:27:40.638Z,9.12
2018-01-11T00:30:09.532Z,9.12
2018-01-11T00:32:38.632Z,9.22
2018-01-11T00:35:08.442Z,9.06
2018-01-11T00:37:37.666Z,9.08
2018-01-11T00:40:07.655Z,9.06
2018-01-11T00:42:37.434Z,9.11
2018-01-11T00:45:06.305Z,9.09
2018-01-11T00:47:35.134Z,9.12
2018-01-11T00:50:04.001Z,9.04
2018-01-11T00:52:32.816Z,9.14
2018-01-11T00:55:02.702Z,9.12
2018-01-11T00:57:31.806Z,9.17
2018-01-11T01:00:00.770Z,9.23
2018-01-11T01:02:30.723Z,9.19
2018-01-11T01:05:01.414Z,9.18
2018-01-11T01:07:30.694Z,9.23
2018-01-11T01:09:59.701Z,9.13
2018-01-11T01:12:29.498Z,9.13
2018-01-11T01:14:59.355Z,8.97
2018-01-11T01:17:29.180Z,8.97
2018-01-11T01:19:58.959Z,9.03
2018-01-11T01:22:28.412Z,9.00
2018-01-11T01:24:57.573Z,9.03
2018-01-11T01:27:27.393Z,9.12
2018-01-11T01:29:56.537Z,9.16
2018-01-11T01:32:25.651Z,9.04
2018-01-11T01:34:55.696Z,9.11
2018-01-11T01:37:28.541Z,9.19
2018-01-11T01:39:58.260Z,9.13
2018-01-11T01:42:27.536Z,9.12
2018-01-11T01:44:56.724Z,9.09
2018-01-11T01:47:28.200Z,9.15
2018-01-11T01:49:58.117Z,9.11
2018-01-11T01:52:27.075Z,9.08
2018-01-11T01:54:57.056Z,9.10
2018-01-11T01:57:26.731Z,9.14
2018-01-11T02:00:00.846Z,9.03
2018-01-11T02:02:30.886Z,9.13
2018-01-11T02:04:59.860Z,9.14
2018-01-11T02:07:28.956Z,9.02
2018-01-11T02:09:58.076Z,9.00
2018-01-11T02:12:26.980Z,9.01
2018-01-11T02:14:56.941Z,8.99
2018-01-11T02:17:25.956Z,9.08
2018-01-11T02:19:55.970Z,9.04
2018-01-11T02:22:27.405Z,8.99
2018-01-11T02:24:56.304Z,9.04
2018-01-11T02:27:26.638Z,9.01
2018-01-11T02:29:56.760Z,9.08
2018-01-11T02:32:25.971Z,9.07
2018-01-11T02:34:54.875Z,9.08
2018-01-11T02:37:26.612Z,9.12
2018-01-11T02:39:57.019Z,9.00
2018-01-11T02:42:26.790Z,9.03
2018-01-11T02:44:56.839Z,9.10
2018-01-11T02:47:25.968Z,9.09
2018-01-11T02:49:56.678Z,9.07
2018-01-11T02:52:28.868Z,8.91
2018-01-11T02:54:57.865Z,8.85
2018-01-11T02:57:26.853Z,8.80
2018-01-11T02:59:56.662Z,8.81
2018-01-11T03:02:25.561Z,8.90
2018-01-11T03:04:54.449Z,8.87
2018-01-11T03:07:26.966Z,8.82
2018-01-11T03:09:56.016Z,8.88
2018-01-11T03:12:26.281Z,8.85
2018-01-11T03:14:57.186Z,8.83
2018-01-11T03:17:26.197Z,8.83
2018-01-11T03:19:56.420Z,8.82
2018-01-11T03:22:26.502Z,8.84
2018-01-11T03:24:56.257Z,8.78
2018-01-11T03:27:25.327Z,8.75
2018-01-11T03:29:55.436Z,8.69
2018-01-11T03:32:24.573Z,8.70
2018-01-11T03:34:53.774Z,8.72
2018-01-11T03:37:22.835Z,8.71
2018-01-11T03:39:51.836Z,8.70
2018-01-11T03:42:20.894Z,8.71
2018-01-11T03:44:50.224Z,8.71
2018-01-11T03:47:19.161Z,8.74
2018-01-11T03:49:49.001Z,8.83
2018-01-11T03:52:19.824Z,8.83
2018-01-11T03:54:49.854Z,8.86
2018-01-11T03:57:19.027Z,8.94
2018-01-11T03:59:51.828Z,9.00
2018-01-11T04:02:20.874Z,9.04
2018-01-11T04:04:49.915Z,8.99
2018-01-11T04:07:22.198Z,8.99
2018-01-11T04:09:51.049Z,8.97
2018-01-11T04:12:19.917Z,9.03
2018-01-11T04:14:49.849Z,9.02
2018-01-11T04:17:18.663Z,9.02
2018-01-11T04:19:47.463Z,9.08
2018-01-11T04:22:17.350Z,9.11
2018-01-11T04:24:46.212Z,9.02
2018-01-11T04:27:15.028Z,9.11
2018-01-11T04:29:43.859Z,8.99
2018-01-11T04:32:12.652Z,8.99
2018-01-11T04:34:42.598Z,9.09
2018-01-11T04:37:11.586Z,9.00
2018-01-11T04:39:40.406Z,9.04
2018-01-11T04:42:09.221Z,9.03
2018-01-11T04:44:38.076Z,9.05
2018-01-11T04:47:06.913Z,9.07
2018-01-11T04:49:35.926Z,9.21
2018-01-11T04:52:04.816Z,9.14
2018-01-11T04:54:33.653Z,9.10
2018-01-11T04:57:02.492Z,9.11
2018-01-11T04:59:35.141Z,9.17
2018-01-11T05:02:04.003Z,9.05
2018-01-11T05:04:32.935Z,9.04
2018-01-11T05:07:01.777Z,9.17
2018-01-11T05:09:30.691Z,9.21
2018-01-11T05:11:59.467Z,9.12
2018-01-11T05:14:29.337Z,9.07
2018-01-11T05:16:58.207Z,9.11
2018-01-11T05:19:27.055Z,9.17
2018-01-11T05:21:55.989Z,9.15
2018-01-11T05:24:24.817Z,9.03
2018-01-11T05:26:53.684Z,9.06
2018-01-11T05:29:22.564Z,9.09
2018-01-11T05:31:51.375Z,9.20
2018-01-11T05:34:20.180Z,9.11
2018-01-11T05:36:50.256Z,9.10
2018-01-11T05:39:19.144Z,9.20
2018-01-11T05:41:47.968Z,9.23
2018-01-11T05:44:18.624Z,9.21
2018-01-11T05:46:47.474Z,9.22
2018-01-11T05:49:16.425Z,9.27
2018-01-11T05:54:19.748Z,9.23
2018-01-11T05:56:49.659Z,9.28
2018-01-11T05:59:23.153Z,9.27
2018-01-11T06:01:53.117Z,9.25
2018-01-11T06:04:23.727Z,9.25
2018-01-11T06:06:52.897Z,9.13
2018-01-11T06:09:21.867Z,9.15
2018-01-11T06:11:52.697Z,9.20
2018-01-11T06:14:21.653Z,9.26
2018-01-11T06:16:50.672Z,9.30
2018-01-11T06:19:20.496Z,9.33
2018-01-11T06:21:49.454Z,9.25
2018-01-11T06:24:19.311Z,9.24
2018-01-11T06:26:49.386Z,9.20
2018-01-11T06:29:19.152Z,9.23
2018-01-11T06:31:49.106Z,9.25
2018-01-11T06:34:18.218Z,9.23
2018-01-11T06:36:47.201Z,9.34
2018-01-11T06:39:16.201Z,9.41
2018-01-11T06:41:45.396Z,9.44
2018-01-11T06:44:15.209Z,9.48
2018-01-11T06:46:44.198Z,9.48
2018-01-11T06:49:14.185Z,9.47
2018-01-11T06:51:43.107Z,9.51
2018-01-11T06:54:12.842Z,9.47
2018-01-11T06:56:43.124Z,9.55
2018-01-11T06:59:12.145Z,9.55
2018-01-11T07:01:41.998Z,9.60
2018-01-11T07:04:12.675Z,9.63
2018-01-11T07:06:41.705Z,9.58
2018-01-11T07:09:10.751Z,9.58
2018-01-11T07:11:39.855Z,9.58
2018-01-11T07:14:08.923Z,9.54
2018-01-11T07:16:38.074Z,9.52
2018-01-11T07:19:09.793Z,9.61
2018-01-11T07:21:38.614Z,9.71
2018-01-11T07:24:07.494Z,9.60
2018-01-11T07:26:36.413Z,9.56
2018-01-11T07:29:05.294Z,9.53
2018-01-11T07:31:34.188Z,9.52
2018-01-11T07:34:03.928Z,9.44
2018-01-11T07:36:32.824Z,9.55
2018-01-11T07:39:01.649Z,9.65
2018-01-11T07:41:30.548Z,9.59
2018-01-11T07:43:59.373Z,9.63
2018-01-11T07:46:28.178Z,9.56
2018-01-11T07:48:57.213Z,9.57
2018-01-11T07:51:26.075Z,9.55
2018-01-11T07:53:54.916Z,9.65
2018-01-11T07:56:24.598Z,9.74
2018-01-11T07:58:53.522Z,9.79
2018-01-11T08:01:22.410Z,9.77
2018-01-11T08:03:52.866Z,9.75
2018-01-11T08:06:21.674Z,9.91
2018-01-11T08:08:50.466Z,9.85
2018-01-11T08:11:19.386Z,9.86
2018-01-11T08:13:48.292Z,9.78
2018-01-11T08:16:17.272Z,9.77
2018-01-11T08:18:46.176Z,9.86
2018-01-11T08:21:15.125Z,9.85
2018-01-11T08:23:43.975Z,9.78
2018-01-11T08:26:15.296Z,9.74
2018-01-11T08:28:44.135Z,9.82
2018-01-11T08:31:12.998Z,9.81
2018-01-11T08:33:42.256Z,9.75
2018-01-11T08:36:11.086Z,9.82
2018-01-11T08:38:39.949Z,9.88
2018-01-11T08:41:08.995Z,9.80
2018-01-11T08:43:37.841Z,9.78
2018-01-11T08:46:06.749Z,9.69
2018-01-11T08:48:35.875Z,9.85
2018-01-11T08:51:04.657Z,9.72
2018-01-11T08:53:33.487Z,9.92
2018-01-11T08:56:02.539Z,9.94
2018-01-11T08:58:31.366Z,10.04
2018-01-11T09:01:00.257Z,10.00
2018-01-11T09:03:31.528Z,9.87
2018-01-11T09:06:00.404Z,9.92
2018-01-11T09:08:29.263Z,9.73
2018-01-11T09:11:00.637Z,9.85
2018-01-11T09:13:29.515Z,9.96
2018-01-11T09:15:58.377Z,10.02
2018-01-11T09:18:27.512Z,10.07
2018-01-11T09:20:56.327Z,10.15
2018-01-11T09:23:25.148Z,10.09
2018-01-11T09:25:54.935Z,10.01
2018-01-11T09:28:23.749Z,10.02
2018-01-11T09:30:52.714Z,10.07
2018-01-11T09:33:23.218Z,10.10
2018-01-11T09:35:52.096Z,10.19
2018-01-11T09:38:20.902Z,10.08
2018-01-11T09:40:49.755Z,10.00
2018-01-11T09:43:18.597Z,10.04
2018-01-11T09:45:47.502Z,9.98
2018-01-11T09:48:16.344Z,10.04
2018-01-11T09:50:45.226Z,10.06
2018-01-11T09:53:14.065Z,9.82
2018-01-11T09:55:42.971Z,9.76
2018-01-11T09:58:11.769Z,9.77
2018-01-11T10:00:40.586Z,9.62
2018-01-11T10:03:09.390Z,9.66
2018-01-11T10:05:38.254Z,9.57
2018-01-11T10:08:07.026Z,9.49
2018-01-11T10:10:42.225Z,9.55
2018-01-11T10:13:11.049Z,9.53
2018-01-11T10:15:39.888Z,9.50
2018-01-11T10:18:08.888Z,9.61
2018-01-11T10:20:37.695Z,9.60
2018-01-11T10:23:06.505Z,9.47
2018-01-11T10:25:36.455Z,9.69
2018-01-11T10:28:05.243Z,9.69
2018-01-11T10:30:34.115Z,9.72
2018-01-11T10:33:06.318Z,9.74
2018-01-11T10:35:35.124Z,9.73
2018-01-11T10:38:04.026Z,9.61
2018-01-11T10:40:33.864Z,9.53
2018-01-11T10:43:02.858Z,9.53
2018-01-11T10:45:31.658Z,9.51
2018-01-11T10:48:01.302Z,9.62
2018-01-11T10:50:30.108Z,9.59
2018-01-11T10:52:59.017Z,9.57
2018-01-11T10:55:29.078Z,9.64
2018-01-11T10:57:57.913Z,9.62
2018-01-11T11:00:26.748Z,9.73
2018-01-11T11:02:56.677Z,9.72
2018-01-11T11:05:25.498Z,9.80
2018-01-11T11:07:54.347Z,9.87
2018-01-11T11:10:23.372Z,9.77
2018-01-11T11:12:52.197Z,9.70
2018-01-11T11:15:21.002Z,9.68
2018-01-11T11:17:53.106Z,9.78
2018-01-11T11:20:21.958Z,9.76
2018-01-11T11:22:50.748Z,9.82
2018-01-11T11:25:20.425Z,9.77
2018-01-11T11:27:49.207Z,9.70
2018-01-11T11:30:17.981Z,9.65
2018-01-11T11:32:48.605Z,9.61
2018-01-11T11:35:17.382Z,9.61
2018-01-11T11:37:46.170Z,9.58
2018-01-11T11:40:15.005Z,9.65
2018-01-11T11:42:43.814Z,9.64
2018-01-11T11:45:12.693Z,9.77
2018-01-11T11:47:43.330Z,9.90
2018-01-11T11:50:12.139Z,9.90
2018-01-11T11:52:40.987Z,9.89
2018-01-11T11:57:43.709Z,9.71
2018-01-11T12:00:12.582Z,9.74
2018-01-11T12:02:42.379Z,9.82
2018-01-11T12:05:11.183Z,9.64
2018-01-11T12:07:41.228Z,9.65
2018-01-11T12:10:10.275Z,9.70
2018-01-11T12:12:39.114Z,9.64
2018-01-11T12:15:07.924Z,9.59
2018-01-11T12:17:37.574Z,9.48
2018-01-11T12:20:06.384Z,9.52
2018-01-11T12:22:35.223Z,9.31
2018-01-11T12:25:04.334Z,9.20
2018-01-11T12:27:33.109Z,9.20
2018-01-11T12:30:01.882Z,9.31
2018-01-11T12:32:30.883Z,9.15
2018-01-11T12:34:59.758Z,9.11
2018-01-11T12:37:28.590Z,9.19
2018-01-11T12:39:58.527Z,9.15
2018-01-11T12:42:27.284Z,9.19
2018-01-11T12:44:56.082Z,9.13
2018-01-11T12:47:25.897Z,9.12
2018-01-11T12:49:54.948Z,9.08
2018-01-11T12:52:23.867Z,9.06
2018-01-11T12:54:53.850Z,8.96
2018-01-11T12:57:23.871Z,8.89
2018-01-11T12:59:52.825Z,8.75
2018-01-11T13:02:21.960Z,8.72
2018-01-11T13:04:50.951Z,8.77
2018-01-11T13:07:19.901Z,8.73
2018-01-11T13:09:49.042Z,8.81
2018-01-11T13:12:18.240Z,8.76
2018-01-11T13:14:47.140Z,8.75
2018-01-11T13:17:18.116Z,8.77
2018-01-11T13:19:47.065Z,8.83
2018-01-11T13:22:17.180Z,8.77
2018-01-11T13:24:47.136Z,8.80
2018-01-11T13:27:16.031Z,8.82
2018-01-11T13:29:45.016Z,8.82
2018-01-11T13:32:14.216Z,8.84
2018-01-11T13:34:43.934Z,8.74
2018-01-11T13:37:13.036Z,8.69
2018-01-11T13:39:42.164Z,8.72
2018-01-11T13:42:11.208Z,8.73
2018-01-11T13:44:41.020Z,8.74
2018-01-11T13:47:11.229Z,8.71
2018-01-11T13:49:40.234Z,8.72
2018-01-11T13:52:09.333Z,8.73
2018-01-11T13:54:40.683Z,8.74
2018-01-11T13:57:10.008Z,8.77
2018-01-11T13:59:38.977Z,8.83
2018-01-11T14:02:08.893Z,8.86
2018-01-11T14:04:37.924Z,8.87
2018-01-11T14:07:06.982Z,8.87
2018-01-11T14:09:37.732Z,8.80
2018-01-11T14:12:07.259Z,8.86
2018-01-11T14:14:36.435Z,8.86
2018-01-11T14:17:06.543Z,8.88
2018-01-11T14:19:35.582Z,8.82
2018-01-11T14:22:05.284Z,8.89
2018-01-11T14:24:34.956Z,8.90
2018-01-11T14:27:03.989Z,8.89
2018-01-11T14:29:32.883Z,8.88
2018-01-11T14:32:04.706Z,8.89
2018-01-11T14:34:34.665Z,8.93
2018-01-11T14:37:03.665Z,8.96
2018-01-11T14:39:32.967Z,9.02
2018-01-11T14:42:02.162Z,8.87
2018-01-11T14:44:31.346Z,8.91
2018-01-11T14:47:05.216Z,8.94
2018-01-11T14:49:35.135Z,8.81
2018-01-11T14:52:04.254Z,8.77
2018-01-11T14:54:38.344Z,8.85
2018-01-11T14:57:09.190Z,8.85
2018-01-11T14:59:38.609Z,8.90
2018-01-11T15:02:08.196Z,8.93
2018-01-11T15:04:38.109Z,8.78
2018-01-11T15:07:07.103Z,8.78
2018-01-11T15:09:36.149Z,8.77
2018-01-11T15:12:06.008Z,8.77
2018-01-11T15:14:36.367Z,8.77
2018-01-11T15:17:05.123Z,8.80
2018-01-11T15:19:34.157Z,8.73
2018-01-11T15:22:03.605Z,8.70
2018-01-11T15:24:32.757Z,8.74
2018-01-11T15:27:02.440Z,8.81
2018-01-11T15:29:31.937Z,8.79
2018-01-11T15:32:00.926Z,8.82
2018-01-11T15:34:30.028Z,8.77
2018-01-11T15:37:00.839Z,8.81
2018-01-11T15:39:29.858Z,8.78
2018-01-11T15:41:59.979Z,8.76
2018-01-11T15:44:31.784Z,8.80
2018-01-11T15:47:01.549Z,8.74
2018-01-11T15:49:31.569Z,8.77
2018-01-11T15:52:02.403Z,8.76
2018-01-11T15:54:32.525Z,8.78
2018-01-11T15:57:01.531Z,8.81
2018-01-11T15:59:32.612Z,8.74
2018-01-11T16:02:02.509Z,8.76
2018-01-11T16:04:32.355Z,8.66
2018-01-11T16:07:01.668Z,8.67
2018-01-11T16:09:30.780Z,8.71
2018-01-11T16:11:59.886Z,8.64
2018-01-11T16:17:03.097Z,8.73
2018-01-11T16:19:32.290Z,8.69
2018-01-11T16:22:01.186Z,8.72
2018-01-11T16:24:30.468Z,8.72
2018-01-11T16:26:59.487Z,8.68
2018-01-11T16:29:30.100Z,8.73
2018-01-11T16:31:59.253Z,8.69
2018-01-11T16:34:28.245Z,8.70
2018-01-11T16:37:02.241Z,8.75
2018-01-11T16:39:32.130Z,8.85
2018-01-11T16:42:02.113Z,8.83
2018-01-11T16:44:32.275Z,8.79
2018-01-11T16:47:02.299Z,8.81
2018-01-11T16:49:31.535Z,8.85
2018-01-11T16:52:01.396Z,8.80
2018-01-11T16:54:30.500Z,8.72
2018-01-11T16:56:59.795Z,8.68
2018-01-11T16:59:29.028Z,8.72
2018-01-11T17:01:58.333Z,8.72
2018-01-11T17:04:27.568Z,8.71
2018-01-11T17:06:56.868Z,8.63
2018-01-11T17:09:25.900Z,8.63
2018-01-11T17:11:54.996Z,8.66
2018-01-11T17:14:25.103Z,8.69
2018-01-11T17:16:54.148Z,8.60
2018-01-11T17:19:23.459Z,8.54
2018-01-11T17:21:52.609Z,8.60
2018-01-11T17:24:21.643Z,8.51
2018-01-11T17:26:50.562Z,8.54
2018-01-11T17:29:19.795Z,8.47
2018-01-11T17:31:48.687Z,8.48
2018-01-11T17:34:17.886Z,8.45
2018-01-11T17:36:47.808Z,8.44
2018-01-11T17:39:16.840Z,8.48
2018-01-11T17:41:46.852Z,8.46
2018-01-11T17:44:16.888Z,8.45
2018-01-11T17:46:46.032Z,8.50
2018-01-11T17:49:15.035Z,8.46
2018-01-11T17:51:45.038Z,8.47
2018-01-11T17:54:14.138Z,8.43
2018-01-11T17:56:44.119Z,8.50
2018-01-11T17:59:14.058Z,8.43
2018-01-11T18:01:43.167Z,8.44
2018-01-11T18:04:12.176Z,8.37
2018-01-11T18:06:41.664Z,8.39
2018-01-11T18:09:10.559Z,8.38
2018-01-11T18:11:40.506Z,8.35
2018-01-11T18:14:10.414Z,8.37
2018-01-11T18:16:39.490Z,8.33
2018-01-11T18:19:09.175Z,8.32
2018-01-11T18:21:40.827Z,8.29
2018-01-11T18:24:09.856Z,8.29
2018-01-11T18:26:38.844Z,8.23
2018-01-11T18:29:08.820Z,8.25
2018-01-11T18:31:37.900Z,8.32
2018-01-11T18:34:07.238Z,8.31
2018-01-11T18:36:36.349Z,8.21
2018-01-11T18:39:06.377Z,8.27
2018-01-11T18:41:35.565Z,8.26
2018-01-11T18:44:05.972Z,8.31
2018-01-11T18:46:34.958Z,8.22
2018-01-11T18:49:04.369Z,8.20
2018-01-11T18:51:33.803Z,8.31
2018-01-11T18:54:03.459Z,8.22
2018-01-11T18:56:32.586Z,8.27
2018-01-11T18:59:02.175Z,8.26
2018-01-11T19:01:32.178Z,8.26
2018-01-11T19:04:01.533Z,8.25
2018-01-11T19:06:35.745Z,8.24
2018-01-11T19:09:05.376Z,8.34
2018-01-11T19:11:43.459Z,8.27
2018-01-11T19:14:14.774Z,8.23
2018-01-11T19:16:44.035Z,8.30
2018-01-11T19:19:13.098Z,8.22
2018-01-11T19:21:42.253Z,8.22
2018-01-11T19:24:11.553Z,8.28
2018-01-11T19:26:40.819Z,8.23
2018-01-11T19:29:10.520Z,8.25
2018-01-11T19:31:40.002Z,8.20
2018-01-11T19:34:09.702Z,8.32
2018-01-11T19:36:39.626Z,8.25
2018-01-11T19:39:09.866Z,8.21
2018-01-11T19:41:40.910Z,8.23
2018-01-11T19:44:10.394Z,8.25
2018-01-11T19:46:40.127Z,8.19
2018-01-11T19:49:09.336Z,8.19
2018-01-11T19:51:38.321Z,8.22
2018-01-11T19:54:07.926Z,8.20
2018-01-11T19:56:41.420Z,8.18
2018-01-11T19:59:11.202Z,8.21
2018-01-11T20:01:41.646Z,8.27
2018-01-11T20:04:13.729Z,8.29
2018-01-11T20:06:43.594Z,8.21
2018-01-11T20:09:12.542Z,8.23
2018-01-11T20:11:43.770Z,8.24
2018-01-11T20:14:12.775Z,8.26
2018-01-11T20:16:42.133Z,8.19
2018-01-11T20:19:11.280Z,8.21
2018-01-11T20:21:40.481Z,8.16
2018-01-11T20:24:10.821Z,8.21
2018-01-11T20:26:40.651Z,8.26
2018-01-11T20:29:10.673Z,8.21
2018-01-11T20:31:39.620Z,8.18
2018-01-11T20:34:15.595Z,8.17
2018-01-11T20:36:44.718Z,8.22
2018-01-11T20:39:13.878Z,8.23
2018-01-11T20:41:43.862Z,8.18
2018-01-11T20:44:12.838Z,8.23
2018-01-11T20:46:42.158Z,8.22
2018-01-11T20:49:12.910Z,8.22
2018-01-11T20:51:42.166Z,8.26
2018-01-11T20:54:13.968Z,8.19
2018-01-11T20:56:44.811Z,8.20
2018-01-11T20:59:13.752Z,8.19
2018-01-11T21:01:44.024Z,8.19
2018-01-11T21:04:18.149Z,8.20
2018-01-11T21:06:47.111Z,8.17
2018-01-11T21:09:17.002Z,8.13
2018-01-11T21:11:46.158Z,8.16
2018-01-11T21:14:17.036Z,8.15
2018-01-11T21:16:46.016Z,8.16
2018-01-11T21:19:16.240Z,8.08
2018-01-11T21:21:45.234Z,8.15
2018-01-11T21:24:14.502Z,8.10
2018-01-11T21:26:45.159Z,8.21
2018-01-11T21:29:14.333Z,8.10
2018-01-11T21:31:43.430Z,8.13
2018-01-11T21:36:46.840Z,8.06
2018-01-11T21:39:17.677Z,8.12
2018-01-11T21:41:47.505Z,8.09
2018-01-11T21:44:16.527Z,8.12
2018-01-11T21:46:46.376Z,8.12
2018-01-11T21:49:16.603Z,8.13
2018-01-11T21:51:46.051Z,8.10
2018-01-11T21:54:15.372Z,8.15
2018-01-11T21:56:45.274Z,8.16
2018-01-11T21:59:15.164Z,8.14
2018-01-11T22:01:44.261Z,8.16
2018-01-11T22:04:15.302Z,8.19
2018-01-11T22:06:44.498Z,8.22
2018-01-11T22:09:13.446Z,8.30
2018-01-11T22:11:43.700Z,8.16
2018-01-11T22:14:13.118Z,8.12
2018-01-11T22:16:42.199Z,8.12
2018-01-11T22:19:12.379Z,8.13
2018-01-11T22:21:41.470Z,8.19
2018-01-11T22:24:10.435Z,8.20
2018-01-11T22:26:39.358Z,8.16
2018-01-11T22:29:08.554Z,8.05
2018-01-11T22:31:37.605Z,8.11
2018-01-11T22:34:07.690Z,8.12
2018-01-11T22:36:36.864Z,8.08
2018-01-11T22:39:05.964Z,8.12
2018-01-11T22:41:35.253Z,8.13
2018-01-11T22:44:05.229Z,8.07
2018-01-11T22:46:34.646Z,8.14
2018-01-11T22:49:04.433Z,8.06
2018-01-11T22:51:33.778Z,8.13
2018-01-11T22:54:02.832Z,8.01
2018-01-11T22:56:33.013Z,8.05
2018-01-11T22:59:02.071Z,8.14
2018-01-11T23:01:32.929Z,8.12
2018-01-11T23:04:03.117Z,8.19
2018-01-11T23:06:32.313Z,8.09
2018-01-11T23:09:01.348Z,8.10
2018-01-11T23:11:38.678Z,8.13
2018-01-11T23:14:07.807Z,8.18
2018-01-11T23:16:39.601Z,8.15
2018-01-11T23:19:10.217Z,8.22
2018-01-11T23:21:39.431Z,8.20
2018-01-11T23:24:09.825Z,8.16
2018-01-11T23:26:39.738Z,8.11
2018-01-11T23:29:08.931Z,8.07
2018-01-11T23:31:39.195Z,8.08
2018-01-11T23:34:08.281Z,8.02
2018-01-11T23:36:37.354Z,8.01
2018-01-11T23:39:06.436Z,7.94
2018-01-11T23:41:36.289Z,7.98
2018-01-11T23:44:05.306Z,7.97
2018-01-11T23:46:34.479Z,8.11
2018-01-11T23:49:03.781Z,8.04
2018-01-11T23:51:32.877Z,8.10
2018-01-11T23:54:05.434Z,8.07
2018-01-11T23:56:40.050Z,8.16
2018-01-11T23:59:09.139Z,8.11
